Time;durP1;ratioP1;P1;durP2;ratioP2;P2;SDS_P1;SDS_P2;PMS_P1;PMS_P2;Temp;Humidity;BMP_temperature;BMP_pressure;BME280_temperature;BME280_humidity;BME280_pressure;Samples;Min_cycle;Max_cycle;Signal;HPM_P1;HPM_P2
2022/01/18 00:00:06;;;;;;;;;;;;;;;-144.99;98.46;52680.47;4918726;29;20029;-57
2022/01/18 00:02:32;;;;;;;;;;;;;;;-144.99;98.46;52651.94;4911428;29;20192;-60
2022/01/18 00:05:00;;;;;;;;;;;;;;;-144.99;98.00;52656.00;4910776;29;19927;-61
2022/01/18 00:07:27;;;;;;;;;;;;;;;-144.99;97.71;52688.63;4948454;28;19930;-58
2022/01/18 00:09:53;;;;;;;;;;;;;;;-144.99;97.58;52678.44;4972235;28;19925;-58
2022/01/18 00:12:54;;;;;;;;;;;;;;;-144.99;97.31;52684.53;4920798;28;19938;-57
2022/01/18 00:15:36;;;;;;;;;;;;;;;-144.99;96.91;52711.03;4905991;29;19959;-58
2022/01/18 00:18:11;;;;;;;;;;;;;;;-144.99;97.21;52696.78;4955370;28;19934;-58
2022/01/18 00:23:30;;;;;;;;;;;;;;;-144.99;96.69;52729.38;4919512;28;19973;-58
2022/01/18 00:25:57;;;;;;;;;;;;;;;-144.99;96.79;52696.78;4950074;28;19927;-57
2022/01/18 00:28:24;;;;;;;;;;;;;;;-144.99;96.98;52658.03;4949347;28;19927;-58
2022/01/18 00:33:44;;;;;;;;;;;;;;;-144.99;96.92;52686.59;4933043;28;19958;-57
2022/01/18 00:36:24;;;;;;;;;;;;;;;-144.99;96.91;52678.44;4941065;28;19926;-57
2022/01/18 00:38:50;;;;;;;;;;;;;;;-144.99;96.80;52656.00;4924703;28;19975;-57
2022/01/18 00:41:19;;;;;;;;;;;;;;;-144.99;97.09;52656.00;4937459;28;20445;-58
2022/01/18 00:43:46;;;;;;;;;;;;;;;-144.99;97.20;52692.69;4942371;28;19954;-59
2022/01/18 00:46:13;;;;;;;;;;;;;;;-144.99;97.66;52733.47;4944555;28;20379;-60
2022/01/18 00:48:42;;;;;;;;;;;;;;;-144.99;97.46;52684.53;4935287;28;20214;-58
2022/01/18 00:51:11;;;;;;;;;;;;;;;-144.99;97.41;52649.88;4942534;28;19925;-59
2022/01/18 00:53:39;;;;;;;;;;;;;;;-144.99;97.25;52660.09;4944899;28;19927;-58
2022/01/18 00:56:17;;;;;;;;;;;;;;;-144.99;97.10;52688.63;4943803;28;19982;-59
2022/01/18 00:58:44;;;;;;;;;;;;;;;-144.99;97.46;52664.16;4932558;28;20483;-61
2022/01/18 01:01:11;;;;;;;;;;;;;;;-144.99;97.43;52668.22;4943077;28;19933;-57
2022/01/18 01:03:38;;;;;;;;;;;;;;;-144.99;97.31;52668.22;4944781;28;19988;-58
2022/01/18 01:06:05;;;;;;;;;;;;;;;-144.99;97.20;52668.22;4932563;28;19931;-58
2022/01/18 01:08:31;;;;;;;;;;;;;;;-144.99;97.36;52676.38;4935761;28;19938;-58
2022/01/18 01:10:59;;;;;;;;;;;;;;;-144.99;97.83;52680.47;4945628;28;19937;-59
2022/01/18 01:13:27;;;;;;;;;;;;;;;-144.99;97.72;52715.13;4952419;28;19933;-58
2022/01/18 01:16:05;;;;;;;;;;;;;;;-144.99;97.78;52719.19;4956748;28;20248;-57
2022/01/18 01:18:42;;;;;;;;;;;;;;;-144.99;97.89;52692.69;4938614;28;20055;-58
2022/01/18 01:32:41;;;;;;;;;;;;;;;-144.99;97.57;52704.94;4946463;28;19936;-58
2022/01/18 01:35:11;;;;;;;;;;;;;;;-144.99;98.10;52692.69;4956541;28;19933;-57
2022/01/18 01:43:18;;;;;;;;;;;;;;;-144.99;99.13;52711.03;4946319;28;20395;-56
2022/01/18 01:45:44;;;;;;;;;;;;;;;-144.99;99.13;52696.78;4936920;28;19996;-56
2022/01/18 01:48:10;;;;;;;;;;;;;;;-144.99;100.00;52696.78;4946950;28;19933;-57
2022/01/18 01:50:46;;;;;;;;;;;;;;;-144.99;99.58;52709.00;4944756;28;19931;-56
2022/01/18 01:53:12;;;;;;;;;;;;;;;-144.99;99.18;52662.13;4926769;28;19989;-56
2022/01/18 01:55:39;;;;;;;;;;;;;;;-144.99;99.74;52711.03;4937283;28;19934;-56
2022/01/18 01:58:06;;;;;;;;;;;;;;;-144.99;100.00;52688.63;4947372;28;19951;-56
2022/01/18 02:00:34;;;;;;;;;;;;;;;-144.99;100.00;52672.31;4944470;28;19927;-59
2022/01/18 02:03:01;;;;;;;;;;;;;;;-144.99;99.97;52656.00;4949861;28;19944;-59
2022/01/18 02:05:27;;;;;;;;;;;;;;;-144.99;100.00;52668.22;4923993;28;19927;-58
2022/01/18 02:07:53;;;;;;;;;;;;;;;-144.99;99.67;52674.34;4944592;28;19938;-58
2022/01/18 02:10:20;;;;;;;;;;;;;;;-144.99;99.22;52704.94;4951039;28;19930;-57
2022/01/18 02:12:46;;;;;;;;;;;;;;;-144.99;99.64;52696.78;4945721;28;19927;-59
2022/01/18 02:15:16;;;;;;;;;;;;;;;-144.99;100.00;52709.00;4946633;28;19934;-58
2022/01/18 02:23:16;;;;;;;;;;;;;;;-144.99;100.00;52635.63;4929965;28;19934;-60
2022/01/18 02:25:43;;;;;;;;;;;;;;;-144.99;99.94;52676.38;4950980;28;19927;-59
2022/01/18 02:28:10;;;;;;;;;;;;;;;-144.99;100.00;52653.97;4936463;28;19935;-57
2022/01/18 02:30:36;;;;;;;;;;;;;;;-144.99;100.00;52674.34;4939388;28;19926;-57
2022/01/18 02:33:03;;;;;;;;;;;;;;;-144.99;100.00;52700.84;4938348;28;19931;-60
2022/01/18 02:35:33;;;;;;;;;;;;;;;-144.99;100.00;52700.84;4947783;28;19927;-58
2022/01/18 02:37:59;;;;;;;;;;;;;;;-144.99;100.00;52674.34;4944167;28;20351;-58
2022/01/18 02:40:26;;;;;;;;;;;;;;;-144.99;100.00;52664.16;4911623;29;19927;-59
2022/01/18 02:42:59;;;;;;;;;;;;;;;-144.99;100.00;52684.53;4912275;29;20031;-59
2022/01/18 02:45:26;;;;;;;;;;;;;;;-144.99;100.00;52688.63;4915602;28;19940;-60
2022/01/18 02:47:53;;;;;;;;;;;;;;;-144.99;100.00;52684.53;4912331;29;19950;-62
2022/01/18 02:50:19;;;;;;;;;;;;;;;-144.99;100.00;52658.03;4912118;29;20146;-63
2022/01/18 02:52:47;;;;;;;;;;;;;;;-144.99;100.00;52686.59;4911686;28;19957;-60
2022/01/18 02:55:13;;;;;;;;;;;;;;;-144.99;100.00;52704.94;4910715;29;19938;-57
2022/01/18 02:57:53;;;;;;;;;;;;;;;-144.99;99.93;52688.63;4917068;29;19938;-59
2022/01/18 03:00:27;;;;;;;;;;;;;;;-144.99;99.75;52696.78;4912371;29;19970;-59
2022/01/18 03:03:12;;;;;;;;;;;;;;;-144.99;99.67;52672.31;4915013;28;20395;-59
2022/01/18 03:05:39;;;;;;;;;;;;;;;-144.99;99.68;52680.47;4911106;29;19938;-59
2022/01/18 03:08:08;;;;;;;;;;;;;;;-144.99;99.59;52639.69;4959561;28;19925;-58
2022/01/18 03:10:35;;;;;;;;;;;;;;;-144.99;99.54;52676.38;4936081;28;19928;-59
2022/01/18 03:13:01;;;;;;;;;;;;;;;-144.99;99.71;52651.94;4965951;28;19934;-59
2022/01/18 03:15:28;;;;;;;;;;;;;;;-144.99;99.45;52684.53;4969282;28;19960;-61
2022/01/18 03:17:54;;;;;;;;;;;;;;;-144.99;99.81;52651.94;4941997;28;19937;-58
2022/01/18 03:20:22;;;;;;;;;;;;;;;-144.99;99.52;52668.22;4930277;28;19927;-59
2022/01/18 03:22:50;;;;;;;;;;;;;;;-144.99;99.46;52664.16;4927236;28;20343;-58
2022/01/18 03:25:28;;;;;;;;;;;;;;;-144.99;99.10;52690.66;4930184;28;19927;-59
2022/01/18 03:28:07;;;;;;;;;;;;;;;-144.99;99.22;52688.63;4946603;28;19928;-59
2022/01/18 03:30:34;;;;;;;;;;;;;;;-144.99;99.05;52692.69;4942771;28;19941;-59
2022/01/18 03:33:00;;;;;;;;;;;;;;;-144.99;98.91;52664.16;4938276;28;19931;-61
2022/01/18 03:35:27;;;;;;;;;;;;;;;-144.99;98.70;52664.16;4929388;28;19982;-58
2022/01/18 03:37:53;;;;;;;;;;;;;;;-144.99;98.43;52713.09;4943073;28;19953;-60
2022/01/18 03:40:21;;;;;;;;;;;;;;;-144.99;98.28;52668.22;4941615;28;19931;-60
2022/01/18 03:42:48;;;;;;;;;;;;;;;-144.99;98.16;52717.16;4925886;28;20302;-58
2022/01/18 03:45:16;;;;;;;;;;;;;;;-144.99;98.07;52721.22;4932407;28;19933;-59
2022/01/18 03:47:44;;;;;;;;;;;;;;;-144.99;97.83;52668.22;4960644;28;20307;-59
2022/01/18 03:50:11;;;;;;;;;;;;;;;-144.99;97.39;52635.63;4905162;29;19974;-58
2022/01/18 03:52:38;;;;;;;;;;;;;;;-144.99;97.15;52668.22;4911369;29;19927;-59
2022/01/18 03:55:05;;;;;;;;;;;;;;;-144.99;97.20;52700.84;4914024;28;20376;-60
2022/01/18 03:57:32;;;;;;;;;;;;;;;-144.99;97.19;52676.38;4922383;29;20380;-57
2022/01/18 03:59:59;;;;;;;;;;;;;;;-144.99;97.24;52688.63;4912321;29;19938;-60
2022/01/18 04:02:26;;;;;;;;;;;;;;;-144.99;97.18;52698.81;4911028;29;19927;-58
2022/01/18 04:04:52;;;;;;;;;;;;;;;-144.99;97.14;52664.16;4910743;29;19928;-63
2022/01/18 04:07:18;;;;;;;;;;;;;;;-144.99;97.20;52664.16;4927589;28;19938;-58
2022/01/18 04:09:45;;;;;;;;;;;;;;;-144.99;97.25;52668.22;4930813;28;19927;-60
2022/01/18 04:12:11;;;;;;;;;;;;;;;-144.99;97.36;52639.69;4949898;28;19929;-58
2022/01/18 04:14:39;;;;;;;;;;;;;;;-144.99;97.32;52651.94;4926983;28;20264;-58
2022/01/18 04:17:13;;;;;;;;;;;;;;;-144.99;97.51;52684.53;4945509;28;19926;-57
2022/01/18 04:28:22;;;;;;;;;;;;;;;-144.99;99.67;52700.84;4921973;28;19927;-60
2022/01/18 04:30:50;;;;;;;;;;;;;;;-144.99;99.87;52656.00;4929983;28;20033;-60
2022/01/18 04:33:16;;;;;;;;;;;;;;;-144.99;100.00;52627.47;4938149;28;19956;-59
2022/01/18 04:35:43;;;;;;;;;;;;;;;-144.99;100.00;52692.69;4940167;28;19946;-58
2022/01/18 04:38:09;;;;;;;;;;;;;;;-144.99;100.00;52694.72;4930036;28;19935;-58
2022/01/18 04:40:39;;;;;;;;;;;;;;;-144.99;100.00;52676.38;4929075;28;19937;-59
2022/01/18 04:43:13;;;;;;;;;;;;;;;-144.99;100.00;52684.53;4943870;28;19926;-58
2022/01/18 04:48:28;;;;;;;;;;;;;;;-144.99;100.00;52664.16;4931791;28;19954;-58
2022/01/18 04:50:54;;;;;;;;;;;;;;;-144.99;100.00;52688.63;4930868;28;19945;-57
2022/01/18 04:53:21;;;;;;;;;;;;;;;-144.99;100.00;52664.16;4934680;28;20395;-56
2022/01/18 04:55:53;;;;;;;;;;;;;;;-144.99;100.00;52656.00;4940311;28;19926;-55
2022/01/18 04:58:19;;;;;;;;;;;;;;;-144.99;100.00;52668.22;4925727;28;19935;-57
2022/01/18 05:00:46;;;;;;;;;;;;;;;-144.99;100.00;52696.78;4943390;22;20345;-66
2022/01/18 05:03:12;;;;;;;;;;;;;;;-144.99;100.00;52674.34;4931666;28;20371;-68
2022/01/18 05:05:40;;;;;;;;;;;;;;;-144.99;100.00;52664.16;4931243;28;19934;-66
2022/01/18 05:08:12;;;;;;;;;;;;;;;-144.99;100.00;52676.38;4931520;29;19935;-67
2022/01/18 05:10:38;;;;;;;;;;;;;;;-144.99;100.00;52668.22;4932905;28;19989;-67
2022/01/18 05:13:14;;;;;;;;;;;;;;;-144.99;100.00;52635.63;4931301;28;20229;-67
2022/01/18 05:15:46;;;;;;;;;;;;;;;-144.99;100.00;52680.47;4929043;28;19927;-67
2022/01/18 05:21:13;;;;;;;;;;;;;;;-144.99;100.00;52668.22;4930447;28;20179;-70
2022/01/18 05:23:38;;;;;;;;;;;;;;;-144.99;100.00;52684.53;4930116;28;19945;-69
2022/01/18 05:26:05;;;;;;;;;;;;;;;-144.99;100.00;52627.47;4935233;28;19931;-68
2022/01/18 05:28:31;;;;;;;;;;;;;;;-144.99;100.00;52676.38;4931227;29;19927;-69
2022/01/18 05:31:00;;;;;;;;;;;;;;;-144.99;100.00;52688.63;4931625;28;20372;-69
2022/01/18 05:33:26;;;;;;;;;;;;;;;-144.99;100.00;52668.22;4930211;28;19931;-69
2022/01/18 05:35:54;;;;;;;;;;;;;;;-144.99;100.00;52668.22;4941410;28;19955;-69
2022/01/18 05:38:21;;;;;;;;;;;;;;;-144.99;100.00;52647.84;4933395;29;20290;-69
2022/01/18 05:40:49;;;;;;;;;;;;;;;-144.99;100.00;52709.00;4932428;28;19926;-70
2022/01/18 05:43:16;;;;;;;;;;;;;;;-144.99;100.00;52680.47;4949292;28;20143;-70
2022/01/18 05:45:42;;;;;;;;;;;;;;;-144.99;100.00;52672.31;4949094;28;20002;-70
2022/01/18 05:48:08;;;;;;;;;;;;;;;-144.99;100.00;52688.63;4929261;29;19933;-70
2022/01/18 05:50:36;;;;;;;;;;;;;;;-144.99;100.00;52651.94;4931482;28;19941;-70
2022/01/18 05:53:02;;;;;;;;;;;;;;;-144.99;100.00;52656.00;4933227;28;19927;-70
2022/01/18 05:55:30;;;;;;;;;;;;;;;-144.99;100.00;52651.94;4929624;28;19934;-69
2022/01/18 05:57:56;;;;;;;;;;;;;;;-144.99;100.00;52633.59;4991533;28;20210;-69
2022/01/18 06:00:24;;;;;;;;;;;;;;;-144.99;100.00;52627.47;5001301;28;19931;-70
2022/01/18 06:03:01;;;;;;;;;;;;;;;-144.99;100.00;52678.44;4955782;28;19926;-69
2022/01/18 06:08:12;;;;;;;;;;;;;;;-144.99;100.00;52656.00;4926448;29;19933;-72
2022/01/18 06:10:40;;;;;;;;;;;;;;;-144.99;100.00;52676.38;4929568;28;19981;-72
2022/01/18 06:13:07;;;;;;;;;;;;;;;-144.99;100.00;52631.53;4930972;28;19938;-73
2022/01/18 06:15:34;;;;;;;;;;;;;;;-144.99;100.00;52656.00;4930669;29;19930;-72
2022/01/18 06:18:00;;;;;;;;;;;;;;;-144.99;100.00;52623.38;4930580;28;19927;-73
2022/01/18 06:20:27;;;;;;;;;;;;;;;-144.99;100.00;52678.44;4930265;28;20082;-73
2022/01/18 06:22:53;;;;;;;;;;;;;;;-144.99;100.00;52668.22;4247619;28;10000849;-73
2022/01/18 06:25:20;;;;;;;;;;;;;;;-144.99;100.00;52639.69;4927200;28;19966;-73
2022/01/18 06:27:48;;;;;;;;;;;;;;;-144.99;100.00;52615.25;4928050;29;20411;-73
2022/01/18 06:30:15;;;;;;;;;;;;;;;-144.99;100.00;52639.69;4927519;28;19935;-73
2022/01/18 06:32:43;;;;;;;;;;;;;;;-144.99;100.00;52641.72;4928680;28;19931;-73
2022/01/18 06:35:10;;;;;;;;;;;;;;;-144.99;100.00;52647.84;4931567;28;19931;-73
2022/01/18 06:37:36;;;;;;;;;;;;;;;-144.99;100.00;52619.31;4931847;28;19927;-74
2022/01/18 06:40:04;;;;;;;;;;;;;;;-144.99;100.00;52635.63;4929221;28;19959;-73
2022/01/18 06:42:30;;;;;;;;;;;;;;;-144.99;100.00;52660.09;4926542;28;20339;-73
2022/01/18 06:44:58;;;;;;;;;;;;;;;-144.99;100.00;52647.84;4931370;29;19935;-74
2022/01/18 06:47:25;;;;;;;;;;;;;;;-144.99;100.00;52660.09;4922926;28;21356;-74
2022/01/18 06:49:51;;;;;;;;;;;;;;;-144.99;100.00;52623.38;4926690;28;19926;-73
2022/01/18 06:52:19;;;;;;;;;;;;;;;-144.99;100.00;52641.72;4927532;28;19926;-74
2022/01/18 06:54:47;;;;;;;;;;;;;;;-144.99;100.00;52651.94;4926597;28;20005;-74
2022/01/18 06:57:13;;;;;;;;;;;;;;;-144.99;100.00;52664.16;4936391;28;19938;-74
2022/01/18 06:59:40;;;;;;;;;;;;;;;-144.99;100.00;52647.84;4929433;29;19931;-74
2022/01/18 07:02:07;;;;;;;;;;;;;;;-144.99;100.00;52615.25;4927729;28;19927;-74
2022/01/18 07:04:34;;;;;;;;;;;;;;;-144.99;100.00;52635.63;4927155;29;19934;-73
2022/01/18 07:07:00;;;;;;;;;;;;;;;-144.99;100.00;52649.88;4924614;28;19927;-73
2022/01/18 07:09:27;;;;;;;;;;;;;;;-144.99;100.00;52662.13;4928924;29;19931;-74
2022/01/18 07:11:54;;;;;;;;;;;;;;;-144.99;100.00;52635.63;4927942;28;20435;-73
2022/01/18 07:14:21;;;;;;;;;;;;;;;-144.99;100.00;52639.69;4931020;28;20006;-73
2022/01/18 07:16:47;;;;;;;;;;;;;;;-144.99;100.00;52611.16;4933217;28;19930;-73
2022/01/18 07:19:15;;;;;;;;;;;;;;;-144.99;100.00;52670.28;4927323;28;19927;-73
2022/01/18 07:21:41;;;;;;;;;;;;;;;-144.99;100.00;52645.81;4935456;28;19935;-73
2022/01/18 07:24:16;;;;;;;;;;;;;;;-144.99;100.00;52700.84;4926554;29;19981;-73
2022/01/18 07:26:43;;;;;;;;;;;;;;;-144.99;100.00;52623.38;4936742;28;19934;-72
2022/01/18 07:29:09;;;;;;;;;;;;;;;-144.99;100.00;52664.16;4926338;28;19931;-74
2022/01/18 07:31:36;;;;;;;;;;;;;;;-144.99;100.00;52627.47;4934707;28;19941;-72
2022/01/18 07:34:02;;;;;;;;;;;;;;;-144.99;100.00;52651.94;4942125;29;20332;-73
2022/01/18 07:36:30;;;;;;;;;;;;;;;-144.99;100.00;52704.94;4950632;28;19985;-74
2022/01/18 07:38:56;;;;;;;;;;;;;;;-144.99;100.00;52660.09;4942260;28;20296;-73
2022/01/18 07:41:23;;;;;;;;;;;;;;;-144.99;100.00;52641.72;4943365;29;19926;-73
2022/01/18 07:43:49;;;;;;;;;;;;;;;-144.99;100.00;52692.69;4942147;29;19937;-73
2022/01/18 07:46:16;;;;;;;;;;;;;;;-144.99;100.00;52651.94;4943753;28;20002;-74
2022/01/18 07:48:42;;;;;;;;;;;;;;;-144.99;100.00;52607.09;4942893;28;20629;-73
2022/01/18 07:51:08;;;;;;;;;;;;;;;-144.99;100.00;52664.16;4943414;29;19975;-73
2022/01/18 07:53:36;;;;;;;;;;;;;;;-144.99;100.00;52637.66;4929438;28;19927;-73
2022/01/18 07:56:02;;;;;;;;;;;;;;;-144.99;100.00;52676.38;4946788;28;19942;-73
2022/01/18 07:58:29;;;;;;;;;;;;;;;-144.99;100.00;52598.94;5010478;28;19925;-73
2022/01/18 08:00:57;;;;;;;;;;;;;;;-144.99;100.00;52680.47;4950509;28;19933;-73
2022/01/18 08:03:23;;;;;;;;;;;;;;;-144.99;100.00;52635.63;4933887;28;19981;-73
2022/01/18 08:05:52;;;;;;;;;;;;;;;-144.99;100.00;52676.38;4929097;28;20299;-73
2022/01/18 08:08:18;;;;;;;;;;;;;;;-144.99;100.00;52635.63;4928091;28;19926;-73
2022/01/18 08:10:46;;;;;;;;;;;;;;;-144.99;100.00;52615.25;4927320;28;20507;-74
2022/01/18 08:13:12;;;;;;;;;;;;;;;-144.99;100.00;52668.22;4922609;28;20006;-74
2022/01/18 08:15:39;;;;;;;;;;;;;;;-144.99;100.00;52651.94;4927865;28;19941;-74
2022/01/18 08:18:07;;;;;;;;;;;;;;;-144.99;100.00;52658.03;4927101;28;19981;-74
2022/01/18 08:20:33;;;;;;;;;;;;;;;-144.99;100.00;52621.34;4928612;28;19938;-74
2022/01/18 08:23:00;;;;;;;;;;;;;;;-144.99;100.00;52641.72;4930974;28;19938;-74
2022/01/18 08:25:26;;;;;;;;;;;;;;;-144.99;100.00;52678.44;4974001;28;19933;-73
2022/01/18 08:27:54;;;;;;;;;;;;;;;-144.99;100.00;52641.72;4953108;28;19937;-73
2022/01/18 08:30:20;;;;;;;;;;;;;;;-144.99;100.00;52647.84;4942274;28;19931;-73
2022/01/18 08:32:48;;;;;;;;;;;;;;;-144.99;100.00;52651.94;4944104;29;19977;-74
2022/01/18 08:35:14;;;;;;;;;;;;;;;-144.99;100.00;52653.97;4948568;28;19931;-74
2022/01/18 08:37:41;;;;;;;;;;;;;;;-144.99;100.00;52651.94;4944267;28;19935;-73
2022/01/18 08:40:08;;;;;;;;;;;;;;;-144.99;100.00;52651.94;4943395;28;19927;-74
2022/01/18 08:42:35;;;;;;;;;;;;;;;-144.99;100.00;52598.94;4935156;28;19940;-73
2022/01/18 08:45:03;;;;;;;;;;;;;;;-144.99;100.00;52672.31;4932092;28;20143;-74
2022/01/18 08:47:30;;;;;;;;;;;;;;;-144.99;100.00;52678.44;4932809;28;19927;-74
2022/01/18 08:49:57;;;;;;;;;;;;;;;-144.99;100.00;52631.53;4931879;28;19930;-73
2022/01/18 08:52:23;;;;;;;;;;;;;;;-144.99;100.00;52664.16;4933640;28;20017;-74
2022/01/18 08:54:50;;;;;;;;;;;;;;;-144.99;100.00;52651.94;4947495;28;19940;-74
2022/01/18 08:57:16;;;;;;;;;;;;;;;-144.99;100.00;52668.22;4994362;28;20409;-73
2022/01/18 08:59:43;;;;;;;;;;;;;;;-144.99;100.00;52633.59;4980240;28;19954;-74
2022/01/18 09:02:11;;;;;;;;;;;;;;;-144.99;100.00;52619.31;4932983;28;20170;-73
2022/01/18 09:04:38;;;;;;;;;;;;;;;-144.99;100.00;52656.00;4933125;28;19939;-74
2022/01/18 09:07:08;;;;;;;;;;;;;;;-144.99;100.00;52631.53;4932666;29;20121;-74
2022/01/18 09:09:34;;;;;;;;;;;;;;;-144.99;100.00;52651.94;4931864;28;20021;-73
2022/01/18 09:12:01;;;;;;;;;;;;;;;-144.99;100.00;52615.25;4932785;28;19937;-74
2022/01/18 09:14:29;;;;;;;;;;;;;;;-144.99;100.00;52651.94;4932455;28;19934;-74
2022/01/18 09:16:55;;;;;;;;;;;;;;;-144.99;100.00;52631.53;4931771;28;20037;-74
2022/01/18 09:19:23;;;;;;;;;;;;;;;-144.99;100.00;52611.16;4932712;28;19930;-74
2022/01/18 09:21:49;;;;;;;;;;;;;;;-144.99;100.00;52623.38;4933093;28;20398;-73
2022/01/18 09:24:16;;;;;;;;;;;;;;;-144.99;100.00;52623.38;4969348;28;20019;-74
2022/01/18 09:26:43;;;;;;;;;;;;;;;-144.99;100.00;52643.78;4971801;28;19940;-74
2022/01/18 09:29:10;;;;;;;;;;;;;;;-144.99;100.00;52643.78;4936782;28;19938;-74
2022/01/18 09:31:37;;;;;;;;;;;;;;;-144.99;100.00;52660.09;4930197;28;19931;-74
2022/01/18 09:34:03;;;;;;;;;;;;;;;-144.99;100.00;52643.78;4930068;28;19927;-73
2022/01/18 09:36:31;;;;;;;;;;;;;;;-144.99;100.00;52647.84;4991822;28;19991;-73
2022/01/18 09:38:59;;;;;;;;;;;;;;;-144.99;100.00;52631.53;4931149;28;20296;-73
2022/01/18 09:41:29;;;;;;;;;;;;;;;-144.99;100.00;52615.25;4929488;28;19931;-73
2022/01/18 09:43:55;;;;;;;;;;;;;;;-144.99;100.00;52678.44;4930367;28;19962;-72
2022/01/18 09:46:23;;;;;;;;;;;;;;;-144.99;100.00;52611.16;4930384;28;19927;-75
2022/01/18 09:48:52;;;;;;;;;;;;;;;-144.99;100.00;52635.63;4930455;28;19950;-73
2022/01/18 09:51:18;;;;;;;;;;;;;;;-144.99;100.00;52621.34;4930297;28;19956;-73
2022/01/18 09:53:46;;;;;;;;;;;;;;;-144.99;100.00;52635.63;4929725;29;20189;-73
2022/01/18 09:56:12;;;;;;;;;;;;;;;-144.99;100.00;52629.50;4955037;28;19925;-73
2022/01/18 09:58:38;;;;;;;;;;;;;;;-144.99;100.00;52623.38;4968543;28;19925;-72
2022/01/18 10:01:05;;;;;;;;;;;;;;;-144.99;100.00;52615.25;4928674;28;19961;-73
2022/01/18 10:03:32;;;;;;;;;;;;;;;-144.99;100.00;52635.63;4955960;28;19936;-73
2022/01/18 10:05:58;;;;;;;;;;;;;;;-144.99;100.00;52621.34;4930452;29;19930;-73
2022/01/18 10:08:25;;;;;;;;;;;;;;;-144.99;100.00;52639.69;4930210;28;19926;-73
2022/01/18 10:10:54;;;;;;;;;;;;;;;-144.99;100.00;52623.38;4930623;28;19931;-74
2022/01/18 10:13:22;;;;;;;;;;;;;;;-144.99;100.00;52656.00;4930260;28;19927;-73
2022/01/18 10:15:58;;;;;;;;;;;;;;;-144.99;100.00;52643.78;4930028;28;20030;-73
2022/01/18 10:18:33;;;;;;;;;;;;;;;-144.99;100.00;52639.69;4930664;28;19934;-73
2022/01/18 10:21:00;;;;;;;;;;;;;;;-144.99;100.00;52635.63;4930402;28;19930;-73
2022/01/18 10:23:26;;;;;;;;;;;;;;;-144.99;100.00;52647.84;4928528;28;19953;-75
2022/01/18 10:25:54;;;;;;;;;;;;;;;-144.99;100.00;52662.13;4979112;28;19930;-73
2022/01/18 10:28:31;;;;;;;;;;;;;;;-144.99;100.00;52631.53;4938261;28;19957;-73
2022/01/18 10:31:00;;;;;;;;;;;;;;;-144.99;100.00;52609.13;4930336;29;19935;-73
2022/01/18 10:33:29;;;;;;;;;;;;;;;-144.99;100.00;52623.38;4930195;28;19930;-73
2022/01/18 10:36:08;;;;;;;;;;;;;;;-144.99;100.00;52627.47;4930665;29;19938;-73
2022/01/18 10:38:35;;;;;;;;;;;;;;;-144.99;100.00;52627.47;4923950;28;19954;-73
2022/01/18 10:41:16;;;;;;;;;;;;;;;-144.99;100.00;52611.16;4930638;29;19926;-74
2022/01/18 10:43:44;;;;;;;;;;;;;;;-144.99;100.00;52615.25;4930052;28;19934;-74
2022/01/18 10:46:14;;;;;;;;;;;;;;;-144.99;100.00;52656.00;4930987;29;19938;-73
2022/01/18 10:48:46;;;;;;;;;;;;;;;-144.99;100.00;52605.03;4931181;28;19938;-74
2022/01/18 10:51:25;;;;;;;;;;;;;;;-144.99;100.00;52651.94;4968958;28;19954;-72
2022/01/18 10:53:56;;;;;;;;;;;;;;;-144.99;99.74;52660.09;4939978;28;19930;-72
2022/01/18 10:56:22;;;;;;;;;;;;;;;-144.99;98.50;52645.81;4946593;28;19929;-72
2022/01/18 10:58:52;;;;;;;;;;;;;;;-144.99;98.10;52643.78;4940922;28;19931;-73
2022/01/18 11:01:20;;;;;;;;;;;;;;;-144.99;97.12;52592.81;4953947;28;20399;-73
2022/01/18 11:04:01;;;;;;;;;;;;;;;-144.99;97.08;52609.13;4944580;28;20176;-73
2022/01/18 11:06:27;;;;;;;;;;;;;;;-144.99;97.09;52613.19;4943400;28;19942;-73
2022/01/18 11:08:54;;;;;;;;;;;;;;;-144.99;96.88;52603.00;4940701;29;19931;-73
2022/01/18 11:11:26;;;;;;;;;;;;;;;-144.99;96.83;52643.78;4941799;28;19927;-72
2022/01/18 11:13:55;;;;;;;;;;;;;;;-144.99;96.75;52611.16;4942672;29;19931;-72
2022/01/18 11:16:26;;;;;;;;;;;;;;;-144.99;97.65;52645.81;4944693;29;19931;-73
2022/01/18 11:18:54;;;;;;;;;;;;;;;-144.99;98.22;52605.03;4930500;28;19938;-73
2022/01/18 11:21:23;;;;;;;;;;;;;;;-144.99;99.74;52600.97;4941886;28;19926;-73
2022/01/18 11:23:52;;;;;;;;;;;;;;;-144.99;100.00;52611.16;4976424;28;19933;-73
2022/01/18 11:26:22;;;;;;;;;;;;;;;-144.99;100.00;52643.78;4935560;28;19935;-72
2022/01/18 11:28:55;;;;;;;;;;;;;;;-144.99;100.00;52633.59;4933055;28;19939;-75
2022/01/18 11:31:23;;;;;;;;;;;;;;;-144.99;99.81;52653.97;4931217;28;19977;-73
2022/01/18 11:33:53;;;;;;;;;;;;;;;-144.99;98.16;52607.09;4942414;29;20396;-73
2022/01/18 11:36:22;;;;;;;;;;;;;;;-144.99;96.94;52627.47;4998041;28;19925;-74
2022/01/18 11:38:53;;;;;;;;;;;;;;;-144.99;96.59;52627.47;4938926;28;20319;-73
2022/01/18 11:41:23;;;;;;;;;;;;;;;-144.99;97.13;52584.66;4936138;28;19977;-73
2022/01/18 11:43:51;;;;;;;;;;;;;;;-144.99;97.33;52615.25;4929324;28;19927;-72
2022/01/18 11:46:23;;;;;;;;;;;;;;;-144.99;98.49;52607.09;4941373;29;20008;-74
2022/01/18 11:48:51;;;;;;;;;;;;;;;-144.99;99.19;52584.66;4935067;29;19934;-73
2022/01/18 11:51:19;;;;;;;;;;;;;;;-144.99;99.63;52598.94;4962888;28;19925;-74
2022/01/18 11:53:55;;;;;;;;;;;;;;;-144.99;98.14;52607.09;4987555;28;19931;-72
2022/01/18 11:56:32;;;;;;;;;;;;;;;-144.99;97.97;52607.09;4935133;28;19931;-72
2022/01/18 11:59:12;;;;;;;;;;;;;;;-144.99;97.78;52656.00;4948033;28;19930;-72
2022/01/18 12:01:47;;;;;;;;;;;;;;;-144.99;99.00;52664.16;4935580;28;19931;-72
2022/01/18 12:04:13;;;;;;;;;;;;;;;-144.99;100.00;52631.53;4928325;29;19944;-72
2022/01/18 12:06:47;;;;;;;;;;;;;;;-144.99;100.00;52598.94;4917433;28;19931;-72
2022/01/18 12:09:41;;;;;;;;;;;;;;;-144.99;100.00;52623.38;4925320;29;19938;-75
2022/01/18 12:12:27;;;;;;;;;;;;;;;-144.99;100.00;52639.69;4952165;28;19926;-72
2022/01/18 12:14:53;;;;;;;;;;;;;;;-144.99;100.00;52615.25;4917743;28;19970;-72
2022/01/18 12:17:21;;;;;;;;;;;;;;;-144.99;99.79;52649.88;4928944;28;19926;-72
2022/01/18 12:19:48;;;;;;;;;;;;;;;-144.99;99.82;52647.84;4923607;29;19931;-72
2022/01/18 12:22:15;;;;;;;;;;;;;;;-144.99;99.37;52702.88;4924396;28;19931;-72
2022/01/18 12:24:46;;;;;;;;;;;;;;;-144.99;99.78;52615.25;4964918;28;20183;-73
2022/01/18 12:27:29;;;;;;;;;;;;;;;-144.99;100.00;52653.97;4922060;28;19931;-74
2022/01/18 12:30:15;;;;;;;;;;;;;;;-144.99;100.00;52621.34;4918728;29;19938;-75
2022/01/18 12:32:57;;;;;;;;;;;;;;;-144.99;99.83;52637.66;4917359;28;19970;-73
2022/01/18 12:35:26;;;;;;;;;;;;;;;-144.99;98.02;52631.53;4928204;29;19938;-73
2022/01/18 12:37:54;;;;;;;;;;;;;;;-144.99;97.53;52635.63;4928920;28;20027;-74
2022/01/18 12:40:25;;;;;;;;;;;;;;;-144.99;97.36;52627.47;4925907;28;19978;-72
2022/01/18 12:45:43;;;;;;;;;;;;;;;-144.99;98.52;52582.63;4909616;28;19934;-73
2022/01/18 12:48:13;;;;;;;;;;;;;;;-144.99;98.42;52635.63;4922236;28;20026;-73
2022/01/18 12:50:41;;;;;;;;;;;;;;;-144.99;98.08;52607.09;4957712;28;19925;-73
2022/01/18 12:53:08;;;;;;;;;;;;;;;-144.99;98.61;52623.38;4974692;28;19929;-73
2022/01/18 12:55:37;;;;;;;;;;;;;;;-144.99;98.43;52647.84;4923236;28;19931;-73
2022/01/18 12:58:06;;;;;;;;;;;;;;;-144.99;98.17;52660.09;4988633;28;20102;-72
2022/01/18 13:00:37;;;;;;;;;;;;;;;-144.99;99.00;52607.09;4955629;28;19942;-73
2022/01/18 13:03:04;;;;;;;;;;;;;;;-144.99;99.20;52639.69;4918903;28;19931;-73
2022/01/18 13:05:39;;;;;;;;;;;;;;;-144.99;99.76;52639.69;4928796;28;19930;-73
2022/01/18 13:08:06;;;;;;;;;;;;;;;-144.99;100.00;52660.09;4924601;29;19934;-73
2022/01/18 13:10:40;;;;;;;;;;;;;;;-144.99;100.00;52651.94;4921762;28;19938;-73
2022/01/18 13:13:07;;;;;;;;;;;;;;;-144.99;100.00;52676.38;4922152;29;19930;-73
2022/01/18 13:26:59;;;;;;;;;;;;;;;-144.99;100.00;52651.94;5022848;28;19961;-72